createdAt,value
2018-11-28T00:00:18.258Z,1022
2018-11-28T00:00:58.821Z,1022.03
2018-11-28T00:01:39.386Z,1022.05
2018-11-28T00:02:19.943Z,1022.01
2018-11-28T00:03:00.501Z,1021.98
2018-11-28T00:03:41.057Z,1022.05
2018-11-28T00:04:21.624Z,1021.96
2018-11-28T00:05:02.179Z,1022.02
2018-11-28T00:05:42.736Z,1021.98
2018-11-28T00:06:23.305Z,1021.97
2018-11-28T00:07:03.868Z,1021.91
2018-11-28T00:07:44.440Z,1021.93
2018-11-28T00:08:25.002Z,1021.89
2018-11-28T00:09:05.562Z,1021.87
2018-11-28T00:09:46.134Z,1021.86
2018-11-28T00:10:26.696Z,1021.83
2018-11-28T00:11:07.250Z,1021.9
2018-11-28T00:11:47.800Z,1021.89
2018-11-28T00:12:28.359Z,1021.88
2018-11-28T00:13:08.919Z,1021.83
2018-11-28T00:13:49.644Z,1021.93
2018-11-28T00:14:30.201Z,1021.88
2018-11-28T00:15:10.764Z,1021.87
2018-11-28T00:15:51.316Z,1021.87
2018-11-28T00:16:31.883Z,1021.85
2018-11-28T00:17:12.439Z,1021.8
2018-11-28T00:17:53.001Z,1021.83
2018-11-28T00:18:33.554Z,1021.8
2018-11-28T00:19:14.115Z,1021.76
2018-11-28T00:19:54.678Z,1021.75
2018-11-28T00:20:35.243Z,1021.74
2018-11-28T00:21:15.800Z,1021.77
2018-11-28T00:23:28.592Z,1021.78
2018-11-28T00:24:09.147Z,1021.78
2018-11-28T00:24:49.716Z,1021.78
2018-11-28T00:25:30.276Z,1021.84
2018-11-28T00:26:10.824Z,1021.83
2018-11-28T00:26:51.365Z,1021.84
2018-11-28T00:27:31.927Z,1021.83
2018-11-28T00:28:12.481Z,1021.82
2018-11-28T00:28:53.044Z,1021.85
2018-11-28T00:29:33.618Z,1021.85
2018-11-28T00:30:14.190Z,1021.82
2018-11-28T00:30:54.743Z,1021.83
2018-11-28T00:31:35.338Z,1021.8
2018-11-28T00:32:15.879Z,1021.78
2018-11-28T00:32:56.428Z,1021.76
2018-11-28T00:33:36.984Z,1021.73
2018-11-28T00:34:17.547Z,1021.71
2018-11-28T00:34:58.101Z,1021.72
2018-11-28T00:35:38.676Z,1021.72
2018-11-28T00:36:19.239Z,1021.66
2018-11-28T00:36:59.799Z,1021.67
2018-11-28T00:37:40.365Z,1021.67
2018-11-28T00:38:20.916Z,1021.69
2018-11-28T00:39:01.485Z,1021.62
2018-11-28T00:39:42.049Z,1021.6
2018-11-28T00:40:22.610Z,1021.66
2018-11-28T00:41:03.204Z,1021.66
2018-11-28T00:41:43.766Z,1021.64
2018-11-28T00:42:24.315Z,1021.65
2018-11-28T00:43:04.881Z,1021.62
2018-11-28T00:43:45.429Z,1021.62
2018-11-28T00:44:25.994Z,1021.63
2018-11-28T00:45:06.549Z,1021.61
2018-11-28T00:45:47.111Z,1021.57
2018-11-28T00:46:27.665Z,1021.62
2018-11-28T00:47:08.217Z,1021.63
2018-11-28T00:47:48.809Z,1021.66
2018-11-28T00:48:29.370Z,1021.73
2018-11-28T00:49:09.926Z,1021.73
2018-11-28T00:49:50.480Z,1021.75
2018-11-28T00:50:31.239Z,1021.8
2018-11-28T00:51:11.810Z,1021.79
2018-11-28T00:51:52.365Z,1021.83
2018-11-28T00:52:32.921Z,1021.8
2018-11-28T00:53:13.540Z,1021.81
2018-11-28T00:53:54.108Z,1021.78
2018-11-28T00:54:34.666Z,1021.84
2018-11-28T00:55:15.221Z,1021.77
2018-11-28T00:55:55.763Z,1021.8
2018-11-28T00:56:36.327Z,1021.83
2018-11-28T00:57:16.885Z,1021.85
2018-11-28T00:57:57.447Z,1021.79
2018-11-28T00:58:38.018Z,1021.82
2018-11-28T00:59:18.575Z,1021.81
2018-11-28T00:59:59.146Z,1021.76
2018-11-28T01:00:39.692Z,1021.83
2018-11-28T01:01:20.257Z,1021.85
2018-11-28T01:02:00.826Z,1021.87
2018-11-28T01:02:42.381Z,1021.89
2018-11-28T01:03:22.943Z,1021.9
2018-11-28T01:04:03.508Z,1021.91
2018-11-28T01:04:44.058Z,1021.94
2018-11-28T01:05:24.607Z,1021.98
2018-11-28T01:06:05.158Z,1021.97
2018-11-28T01:06:45.716Z,1021.97
2018-11-28T01:07:26.265Z,1022.02
2018-11-28T01:08:06.827Z,1021.9
2018-11-28T01:08:47.393Z,1021.94
2018-11-28T01:09:27.961Z,1021.97
2018-11-28T01:10:08.521Z,1021.91
2018-11-28T01:10:49.086Z,1021.91
2018-11-28T01:11:29.657Z,1021.92
2018-11-28T01:12:10.202Z,1021.98
2018-11-28T01:12:50.752Z,1021.96
2018-11-28T01:13:31.318Z,1021.95
2018-11-28T01:14:11.873Z,1021.97
2018-11-28T01:14:52.429Z,1022.06
2018-11-28T01:15:32.987Z,1022.03
2018-11-28T01:16:13.526Z,1022.07
2018-11-28T01:16:54.100Z,1022.05
2018-11-28T01:17:34.661Z,1022.07
2018-11-28T01:18:15.226Z,1022.09
2018-11-28T01:18:55.774Z,1022.07
2018-11-28T01:19:36.340Z,1022.09
2018-11-28T01:20:16.907Z,1022.11
2018-11-28T01:20:57.486Z,1022.08
2018-11-28T01:21:38.037Z,1022.09
2018-11-28T01:22:18.591Z,1022.07
2018-11-28T01:22:59.173Z,1022.05
2018-11-28T01:23:39.740Z,1022.1
2018-11-28T01:24:20.309Z,1022.07
2018-11-28T01:25:00.871Z,1022.09
2018-11-28T01:25:41.423Z,1022.19
2018-11-28T01:26:21.975Z,1022.13
2018-11-28T01:27:02.529Z,1022.11
2018-11-28T01:27:43.076Z,1022.16
2018-11-28T01:28:23.626Z,1022.17
2018-11-28T01:29:04.189Z,1022.18
2018-11-28T01:29:44.743Z,1022.18
2018-11-28T01:30:25.286Z,1022.18
2018-11-28T01:31:05.832Z,1022.17
2018-11-28T01:31:46.380Z,1022.13
2018-11-28T01:32:26.950Z,1022.12
2018-11-28T01:33:07.502Z,1022.11
2018-11-28T01:33:48.047Z,1022.14
2018-11-28T01:34:28.613Z,1022.13
2018-11-28T01:35:09.158Z,1022.09
2018-11-28T01:35:49.724Z,1022.11
2018-11-28T01:36:30.273Z,1022.08
2018-11-28T01:37:10.838Z,1022.07
2018-11-28T01:37:51.405Z,1022.07
2018-11-28T01:38:31.983Z,1022.06
2018-11-28T01:39:12.551Z,1022.09
2018-11-28T01:39:53.118Z,1022.08
2018-11-28T01:40:33.656Z,1022.06
2018-11-28T01:41:14.212Z,1022.01
2018-11-28T01:41:54.767Z,1022.03
2018-11-28T01:42:35.323Z,1022.08
2018-11-28T01:43:15.871Z,1022.11
2018-11-28T01:43:56.462Z,1022.13
2018-11-28T01:44:37.035Z,1022.11
2018-11-28T01:45:17.596Z,1022.09
2018-11-28T01:45:58.160Z,1022.09
2018-11-28T01:46:38.709Z,1022.09
2018-11-28T01:47:19.267Z,1022.08
2018-11-28T01:47:59.815Z,1022.1
2018-11-28T01:48:40.377Z,1022.06
2018-11-28T01:49:20.927Z,1022.08
2018-11-28T01:50:01.643Z,1022.09
2018-11-28T01:50:42.038Z,1022.1
2018-11-28T01:51:22.594Z,1022.07
2018-11-28T01:52:03.165Z,1022.07
2018-11-28T01:52:43.734Z,1022.07
2018-11-28T01:53:24.287Z,1022.12
2018-11-28T01:54:04.841Z,1022.1
2018-11-28T01:54:45.402Z,1022.14
2018-11-28T01:55:25.955Z,1022.1
2018-11-28T01:56:06.523Z,1022.07
2018-11-28T01:56:47.081Z,1022.03
2018-11-28T01:57:27.636Z,1022.05
2018-11-28T01:58:08.176Z,1022.05
2018-11-28T01:58:48.727Z,1022.01
2018-11-28T01:59:29.988Z,1022.05
2018-11-28T02:00:10.539Z,1022.02
2018-11-28T02:00:51.100Z,1022.02
2018-11-28T02:01:31.695Z,1022.05
2018-11-28T02:02:12.262Z,1022.03
2018-11-28T02:02:52.814Z,1022.05
2018-11-28T02:03:33.390Z,1022.06
2018-11-28T02:04:13.935Z,1022.09
2018-11-28T02:04:54.491Z,1022.05
2018-11-28T02:05:35.043Z,1022.11
2018-11-28T02:06:15.594Z,1022.12
2018-11-28T02:06:56.181Z,1022.09
2018-11-28T02:07:36.742Z,1022.1
2018-11-28T02:08:17.323Z,1022.04
2018-11-28T02:08:57.887Z,1022.05
2018-11-28T02:09:38.442Z,1022.01
2018-11-28T02:10:19.002Z,1022
2018-11-28T02:10:59.553Z,1022
2018-11-28T02:11:40.101Z,1021.94
2018-11-28T02:12:20.668Z,1021.96
2018-11-28T02:13:01.210Z,1021.95
2018-11-28T02:13:41.769Z,1021.95
2018-11-28T02:14:22.304Z,1022.01
2018-11-28T02:15:02.864Z,1021.96
2018-11-28T02:15:43.428Z,1021.98
2018-11-28T02:16:23.989Z,1021.99
2018-11-28T02:17:04.540Z,1021.97
2018-11-28T02:17:45.096Z,1021.98
2018-11-28T02:18:25.653Z,1022
2018-11-28T02:19:06.213Z,1021.95
2018-11-28T02:19:46.763Z,1021.97
2018-11-28T02:20:27.311Z,1022.04
2018-11-28T02:21:07.855Z,1021.98
2018-11-28T02:21:48.414Z,1021.97
2018-11-28T02:22:28.968Z,1022.03
2018-11-28T02:23:09.526Z,1022.04
2018-11-28T02:23:50.092Z,1022
2018-11-28T02:24:30.651Z,1022.07
2018-11-28T02:25:11.226Z,1022.08
2018-11-28T02:25:51.793Z,1022.09
2018-11-28T02:26:32.364Z,1022.08
2018-11-28T02:27:12.924Z,1022.08
2018-11-28T02:27:53.484Z,1022.07
2018-11-28T02:28:34.052Z,1022.06
2018-11-28T02:29:14.611Z,1022.02
2018-11-28T02:29:55.187Z,1022.08
2018-11-28T02:30:35.736Z,1022.03
2018-11-28T02:31:16.291Z,1022.06
2018-11-28T02:31:56.841Z,1022.04
2018-11-28T02:32:37.421Z,1022.05
2018-11-28T02:33:17.973Z,1022.06
2018-11-28T02:33:58.543Z,1022.07
2018-11-28T02:34:39.101Z,1022.06
2018-11-28T02:35:19.659Z,1022.1
2018-11-28T02:36:00.223Z,1022.1
2018-11-28T02:36:40.775Z,1022.13
2018-11-28T02:37:21.337Z,1022.12
2018-11-28T02:38:01.896Z,1022.15
2018-11-28T02:38:42.453Z,1022.16
2018-11-28T02:39:22.997Z,1022.19
2018-11-28T02:40:03.554Z,1022.12
2018-11-28T02:40:44.183Z,1022.15
2018-11-28T02:41:24.742Z,1022.2
2018-11-28T02:42:05.301Z,1022.2
2018-11-28T02:42:45.874Z,1022.25
2018-11-28T02:43:26.426Z,1022.21
2018-11-28T02:44:06.980Z,1022.23
2018-11-28T02:44:47.529Z,1022.23
2018-11-28T02:45:28.086Z,1022.2
2018-11-28T02:46:08.632Z,1022.19
2018-11-28T02:46:49.196Z,1022.18
2018-11-28T02:47:29.766Z,1022.24
2018-11-28T02:48:10.317Z,1022.26
2018-11-28T02:48:50.869Z,1022.21
2018-11-28T02:49:31.446Z,1022.28
2018-11-28T02:50:12.010Z,1022.27
2018-11-28T02:50:52.740Z,1022.23
2018-11-28T02:51:33.301Z,1022.26
2018-11-28T02:52:13.863Z,1022.23
2018-11-28T02:52:54.444Z,1022.25
2018-11-28T02:53:35.004Z,1022.26
2018-11-28T02:54:15.604Z,1022.28
2018-11-28T02:54:56.177Z,1022.24
2018-11-28T02:55:36.734Z,1022.19
2018-11-28T02:56:17.287Z,1022.21
2018-11-28T02:56:57.848Z,1022.21
2018-11-28T02:57:38.429Z,1022.19
2018-11-28T02:58:19.002Z,1022.21
2018-11-28T02:58:59.559Z,1022.21
2018-11-28T02:59:40.119Z,1022.22
2018-11-28T03:00:20.692Z,1022.22
2018-11-28T03:01:01.229Z,1022.2
2018-11-28T03:01:41.791Z,1022.21
2018-11-28T03:02:22.340Z,1022.22
2018-11-28T03:03:02.895Z,1022.2
2018-11-28T03:03:43.445Z,1022.22
2018-11-28T03:04:24.004Z,1022.21
2018-11-28T03:05:04.550Z,1022.21
2018-11-28T03:05:45.099Z,1022.23
2018-11-28T03:06:25.641Z,1022.25
2018-11-28T03:07:06.198Z,1022.24
2018-11-28T03:07:46.743Z,1022.19
2018-11-28T03:08:27.318Z,1022.26
2018-11-28T03:09:07.855Z,1022.24
2018-11-28T03:09:48.406Z,1022.25
2018-11-28T03:10:28.955Z,1022.28
2018-11-28T03:11:09.533Z,1022.3
2018-11-28T03:11:50.081Z,1022.34
2018-11-28T03:12:30.634Z,1022.35
2018-11-28T03:13:11.197Z,1022.38
2018-11-28T03:13:51.773Z,1022.37
2018-11-28T03:14:32.334Z,1022.36
2018-11-28T03:15:12.924Z,1022.32
2018-11-28T03:15:53.472Z,1022.32
2018-11-28T03:16:34.030Z,1022.34
2018-11-28T03:17:14.585Z,1022.38
2018-11-28T03:17:55.134Z,1022.33
2018-11-28T03:18:35.696Z,1022.37
2018-11-28T03:19:16.235Z,1022.36
2018-11-28T03:19:56.792Z,1022.33
2018-11-28T03:20:37.347Z,1022.36
2018-11-28T03:21:17.904Z,1022.35
2018-11-28T03:21:58.454Z,1022.38
2018-11-28T03:22:39.008Z,1022.43
2018-11-28T03:23:19.560Z,1022.4
2018-11-28T03:24:00.126Z,1022.41
2018-11-28T03:24:40.683Z,1022.43
2018-11-28T03:25:21.246Z,1022.44
2018-11-28T03:26:01.818Z,1022.49
2018-11-28T03:26:42.365Z,1022.45
2018-11-28T03:27:22.937Z,1022.38
2018-11-28T03:28:03.483Z,1022.45
2018-11-28T03:28:44.039Z,1022.39
2018-11-28T03:29:24.647Z,1022.43
2018-11-28T03:30:05.213Z,1022.45
2018-11-28T03:30:45.773Z,1022.41
2018-11-28T03:31:26.328Z,1022.42
2018-11-28T03:32:06.894Z,1022.38
2018-11-28T03:32:47.466Z,1022.36
2018-11-28T03:33:27.995Z,1022.32
2018-11-28T03:34:08.592Z,1022.38
2018-11-28T03:34:49.113Z,1022.38
2018-11-28T03:35:29.667Z,1022.39
2018-11-28T03:36:10.224Z,1022.44
2018-11-28T03:36:50.802Z,1022.42
2018-11-28T03:37:31.358Z,1022.45
2018-11-28T03:38:11.919Z,1022.46
2018-11-28T03:38:52.484Z,1022.49
2018-11-28T03:39:33.038Z,1022.52
2018-11-28T03:40:13.622Z,1022.46
2018-11-28T03:40:54.168Z,1022.46
2018-11-28T03:41:34.724Z,1022.44
2018-11-28T03:42:15.279Z,1022.46
2018-11-28T03:42:55.834Z,1022.46
2018-11-28T03:43:36.388Z,1022.48
2018-11-28T03:44:16.986Z,1022.46
2018-11-28T03:44:57.507Z,1022.43
2018-11-28T03:45:38.062Z,1022.48
2018-11-28T03:46:18.629Z,1022.43
2018-11-28T03:46:59.193Z,1022.48
2018-11-28T03:47:39.757Z,1022.46
2018-11-28T03:48:20.336Z,1022.49
2018-11-28T03:49:00.886Z,1022.5
2018-11-28T03:49:41.444Z,1022.48
2018-11-28T03:50:22.008Z,1022.52
2018-11-28T03:51:02.570Z,1022.51
2018-11-28T03:51:43.117Z,1022.53
2018-11-28T03:52:23.675Z,1022.53
2018-11-28T03:53:04.229Z,1022.61
2018-11-28T03:53:44.790Z,1022.55
2018-11-28T03:54:25.363Z,1022.57
2018-11-28T03:55:05.916Z,1022.57
2018-11-28T03:55:46.491Z,1022.58
2018-11-28T03:56:27.058Z,1022.63
2018-11-28T03:57:07.629Z,1022.58
2018-11-28T03:57:48.182Z,1022.64
2018-11-28T03:58:28.736Z,1022.59
2018-11-28T03:59:09.299Z,1022.6
2018-11-28T03:59:49.873Z,1022.62
2018-11-28T04:00:30.413Z,1022.58
2018-11-28T04:01:10.979Z,1022.58
2018-11-28T04:01:51.528Z,1022.6
2018-11-28T04:02:32.087Z,1022.61
2018-11-28T04:03:12.637Z,1022.57
2018-11-28T04:03:53.188Z,1022.58
2018-11-28T04:04:33.742Z,1022.6
2018-11-28T04:05:14.299Z,1022.58
2018-11-28T04:05:54.848Z,1022.57
2018-11-28T04:06:35.392Z,1022.61
2018-11-28T04:07:15.939Z,1022.63
2018-11-28T04:07:56.526Z,1022.58
2018-11-28T04:08:37.076Z,1022.64
2018-11-28T04:09:17.657Z,1022.65
2018-11-28T04:09:58.212Z,1022.68
2018-11-28T04:10:38.780Z,1022.69
2018-11-28T04:11:19.344Z,1022.71
2018-11-28T04:11:59.899Z,1022.71
2018-11-28T04:12:40.454Z,1022.71
2018-11-28T04:13:20.998Z,1022.7
2018-11-28T04:14:01.552Z,1022.71
2018-11-28T04:14:42.101Z,1022.71
2018-11-28T04:15:22.679Z,1022.69
2018-11-28T04:16:03.210Z,1022.74
2018-11-28T04:16:43.766Z,1022.73
2018-11-28T04:17:24.328Z,1022.72
2018-11-28T04:18:04.892Z,1022.71
2018-11-28T04:18:45.444Z,1022.69
2018-11-28T04:19:26.059Z,1022.71
2018-11-28T04:20:06.620Z,1022.73
2018-11-28T04:20:47.175Z,1022.7
2018-11-28T04:21:27.809Z,1022.71
2018-11-28T04:22:08.403Z,1022.75
2018-11-28T04:22:48.969Z,1022.7
2018-11-28T04:23:29.528Z,1022.75
2018-11-28T04:24:10.087Z,1022.8
2018-11-28T04:24:50.661Z,1022.74
2018-11-28T04:25:31.218Z,1022.78
2018-11-28T04:26:11.797Z,1022.83
2018-11-28T04:26:52.348Z,1022.86
2018-11-28T04:27:32.908Z,1022.81
2018-11-28T04:28:13.457Z,1022.83
2018-11-28T04:28:54.005Z,1022.85
2018-11-28T04:29:34.562Z,1022.86
2018-11-28T04:30:15.135Z,1022.84
2018-11-28T04:30:55.690Z,1022.85
2018-11-28T04:31:36.246Z,1022.83
2018-11-28T04:32:16.798Z,1022.84
2018-11-28T04:32:57.369Z,1022.82
2018-11-28T04:33:37.920Z,1022.8
2018-11-28T04:34:18.486Z,1022.82
2018-11-28T04:34:59.046Z,1022.81
2018-11-28T04:35:39.590Z,1022.79
2018-11-28T04:36:20.148Z,1022.81
2018-11-28T04:37:00.715Z,1022.79
2018-11-28T04:37:41.264Z,1022.85
2018-11-28T04:38:21.817Z,1022.81
2018-11-28T04:39:02.379Z,1022.84
2018-11-28T04:39:42.944Z,1022.84
2018-11-28T04:40:23.505Z,1022.81
2018-11-28T04:41:04.061Z,1022.86
2018-11-28T04:41:44.617Z,1022.84
2018-11-28T04:42:25.184Z,1022.87
2018-11-28T04:43:05.753Z,1022.89
2018-11-28T04:43:46.302Z,1022.88
2018-11-28T04:44:26.852Z,1022.87
2018-11-28T04:45:07.426Z,1022.82
2018-11-28T04:45:48.007Z,1022.85
2018-11-28T04:46:28.556Z,1022.84
2018-11-28T04:47:09.116Z,1022.89
2018-11-28T04:47:49.712Z,1022.88
2018-11-28T04:48:30.264Z,1022.9
2018-11-28T04:49:10.837Z,1022.93
2018-11-28T04:49:51.399Z,1022.93
2018-11-28T04:50:31.962Z,1022.9
2018-11-28T04:51:12.523Z,1022.85
2018-11-28T04:51:53.083Z,1022.84
2018-11-28T04:52:33.656Z,1022.91
2018-11-28T04:53:14.219Z,1022.93
2018-11-28T04:53:54.778Z,1022.9
2018-11-28T04:54:35.331Z,1022.88
2018-11-28T04:55:15.901Z,1022.88
2018-11-28T04:55:56.441Z,1022.85
2018-11-28T04:56:37.008Z,1022.87
2018-11-28T04:57:17.559Z,1022.85
2018-11-28T04:57:58.137Z,1022.84
2018-11-28T04:58:38.691Z,1022.82
2018-11-28T04:59:19.251Z,1022.83
2018-11-28T04:59:59.805Z,1022.82
2018-11-28T05:00:40.371Z,1022.84
2018-11-28T05:01:20.977Z,1022.82
2018-11-28T05:02:01.533Z,1022.8
2018-11-28T05:02:42.106Z,1022.84
2018-11-28T05:03:22.665Z,1022.83
2018-11-28T05:04:03.224Z,1022.82
2018-11-28T05:04:43.786Z,1022.78
2018-11-28T05:05:24.349Z,1022.8
2018-11-28T05:06:04.910Z,1022.81
2018-11-28T05:06:45.470Z,1022.78
2018-11-28T05:07:26.028Z,1022.75
2018-11-28T05:08:06.580Z,1022.8
2018-11-28T05:08:47.132Z,1022.75
2018-11-28T05:09:27.686Z,1022.77
2018-11-28T05:10:08.239Z,1022.75
2018-11-28T05:10:48.800Z,1022.79
2018-11-28T05:11:29.362Z,1022.81
2018-11-28T05:12:09.935Z,1022.83
2018-11-28T05:12:50.499Z,1022.83
2018-11-28T05:13:31.052Z,1022.83
2018-11-28T05:14:11.617Z,1022.86
2018-11-28T05:14:52.185Z,1022.89
2018-11-28T05:15:32.775Z,1022.83
2018-11-28T05:16:13.337Z,1022.89
2018-11-28T05:16:53.901Z,1022.85
2018-11-28T05:17:34.458Z,1022.86
2018-11-28T05:18:15.026Z,1022.87
2018-11-28T05:18:55.582Z,1022.85
2018-11-28T05:19:36.139Z,1022.86
2018-11-28T05:20:16.700Z,1022.84
2018-11-28T05:20:57.266Z,1022.85
2018-11-28T05:21:37.826Z,1022.88
2018-11-28T05:22:18.394Z,1022.9
2018-11-28T05:22:58.944Z,1022.88
2018-11-28T05:23:39.517Z,1022.85
2018-11-28T05:24:20.074Z,1022.94
2018-11-28T05:25:00.668Z,1022.93
2018-11-28T05:25:41.220Z,1022.89
2018-11-28T05:26:21.781Z,1022.89
2018-11-28T05:27:02.358Z,1022.93
2018-11-28T05:27:42.924Z,1022.9
2018-11-28T05:28:23.515Z,1022.93
2018-11-28T05:29:04.061Z,1022.92
2018-11-28T05:29:44.647Z,1022.92
2018-11-28T05:30:25.201Z,1022.97
2018-11-28T05:31:05.774Z,1022.93
2018-11-28T05:31:46.329Z,1022.91
2018-11-28T05:32:26.885Z,1022.94
2018-11-28T05:33:07.449Z,1022.97
2018-11-28T05:33:48.014Z,1022.97
2018-11-28T05:34:28.567Z,1022.97
2018-11-28T05:35:09.122Z,1022.97
2018-11-28T05:35:49.674Z,1022.99
2018-11-28T05:36:30.226Z,1023
2018-11-28T05:37:10.843Z,1022.99
2018-11-28T05:37:51.393Z,1022.97
2018-11-28T05:38:31.954Z,1023.01
2018-11-28T05:39:12.511Z,1023.01
2018-11-28T05:39:53.064Z,1023.01
2018-11-28T05:40:33.616Z,1023.02
2018-11-28T05:41:14.171Z,1023.02
2018-11-28T05:41:54.734Z,1023.05
2018-11-28T05:42:35.289Z,1023.03
2018-11-28T05:43:15.840Z,1023.01
2018-11-28T05:43:56.427Z,1023.05
2018-11-28T05:44:36.989Z,1023.03
2018-11-28T05:45:17.546Z,1022.99
2018-11-28T05:45:58.237Z,1023.02
2018-11-28T05:46:38.993Z,1023.02
2018-11-28T05:47:19.605Z,1023
2018-11-28T05:48:00.229Z,1023.03
2018-11-28T05:48:41.143Z,1023.05
2018-11-28T05:49:21.781Z,1023
2018-11-28T05:50:02.344Z,1023.05
2018-11-28T05:50:42.896Z,1023.05
2018-11-28T05:51:23.457Z,1023.04
2018-11-28T05:52:04.122Z,1023
2018-11-28T05:52:44.881Z,1023.04
2018-11-28T05:53:26.698Z,1023.05
2018-11-28T05:54:07.603Z,1023.07
2018-11-28T05:54:48.291Z,1023.05
2018-11-28T05:55:29.198Z,1023.05
2018-11-28T05:56:10.043Z,1023.08
2018-11-28T05:56:50.935Z,1023.09
2018-11-28T05:57:31.652Z,1023.09
2018-11-28T05:58:12.601Z,1023.11
2018-11-28T05:58:53.531Z,1023.08
2018-11-28T05:59:34.433Z,1023.1
2018-11-28T06:00:15.074Z,1023.12
2018-11-28T06:00:55.637Z,1023.12
2018-11-28T06:01:36.222Z,1023.12
2018-11-28T06:02:16.803Z,1023.11
2018-11-28T06:02:57.726Z,1023.12
2018-11-28T06:03:38.510Z,1023.13
2018-11-28T06:04:19.113Z,1023.13
2018-11-28T06:04:59.673Z,1023.12
2018-11-28T06:05:40.312Z,1023.17
2018-11-28T06:06:21.738Z,1023.13
2018-11-28T06:07:02.726Z,1023.19
2018-11-28T06:07:43.550Z,1023.17
2018-11-28T06:08:24.150Z,1023.24
2018-11-28T06:09:04.731Z,1023.19
2018-11-28T06:09:45.294Z,1023.21
2018-11-28T06:10:25.839Z,1023.2
2018-11-28T06:11:06.404Z,1023.2
2018-11-28T06:11:46.952Z,1023.21
2018-11-28T06:12:27.649Z,1023.15
2018-11-28T06:13:08.219Z,1023.2
2018-11-28T06:13:48.808Z,1023.16
2018-11-28T06:14:29.503Z,1023.12
2018-11-28T06:15:10.066Z,1023.16
2018-11-28T06:15:50.619Z,1023.17
2018-11-28T06:16:31.223Z,1023.16
2018-11-28T06:17:11.779Z,1023.17
2018-11-28T06:17:52.336Z,1023.15
2018-11-28T06:18:32.910Z,1023.16
2018-11-28T06:19:13.471Z,1023.22
2018-11-28T06:19:54.448Z,1023.21
2018-11-28T06:20:35.124Z,1023.22
2018-11-28T06:21:15.700Z,1023.26
2018-11-28T06:21:56.271Z,1023.29
2018-11-28T06:22:36.837Z,1023.29
2018-11-28T06:23:17.391Z,1023.29
2018-11-28T06:23:57.948Z,1023.27
2018-11-28T06:24:38.515Z,1023.27
2018-11-28T06:25:19.076Z,1023.3
2018-11-28T06:25:59.628Z,1023.26
2018-11-28T06:28:27.711Z,1023.26
2018-11-28T06:29:08.267Z,1023.28
2018-11-28T06:29:48.825Z,1023.28
2018-11-28T06:30:29.396Z,1023.26
2018-11-28T06:31:09.958Z,1023.3
2018-11-28T06:31:50.509Z,1023.29
2018-11-28T06:32:31.076Z,1023.29
2018-11-28T06:33:11.627Z,1023.31
2018-11-28T06:33:52.188Z,1023.32
2018-11-28T06:34:32.745Z,1023.33
2018-11-28T06:35:13.298Z,1023.32
2018-11-28T06:35:53.858Z,1023.3
2018-11-28T06:36:34.420Z,1023.23
2018-11-28T06:37:14.972Z,1023.3
2018-11-28T06:37:55.528Z,1023.3
2018-11-28T06:38:36.089Z,1023.28
2018-11-28T06:39:16.641Z,1023.28
2018-11-28T06:39:57.199Z,1023.29
2018-11-28T06:40:37.823Z,1023.35
2018-11-28T06:41:18.381Z,1023.24
2018-11-28T06:41:58.927Z,1023.26
2018-11-28T06:42:39.489Z,1023.29
2018-11-28T06:43:20.065Z,1023.29
2018-11-28T06:44:00.612Z,1023.29
2018-11-28T06:44:41.172Z,1023.32
2018-11-28T06:45:21.724Z,1023.28
2018-11-28T06:46:02.279Z,1023.32
2018-11-28T06:46:42.844Z,1023.32
2018-11-28T06:47:23.407Z,1023.36
2018-11-28T06:48:03.960Z,1023.36
2018-11-28T06:48:44.529Z,1023.37
2018-11-28T06:49:25.089Z,1023.36
2018-11-28T06:50:05.651Z,1023.44
2018-11-28T06:53:19.493Z,1023.48
2018-11-28T06:54:00.051Z,1023.48
2018-11-28T06:54:40.605Z,1023.5
2018-11-28T06:55:21.161Z,1023.47
2018-11-28T06:56:01.724Z,1023.46
2018-11-28T06:56:42.282Z,1023.49
2018-11-28T06:57:22.845Z,1023.49
2018-11-28T06:58:03.396Z,1023.45
2018-11-28T06:58:43.957Z,1023.46
2018-11-28T06:59:24.509Z,1023.49
2018-11-28T07:00:05.072Z,1023.45
2018-11-28T07:00:45.621Z,1023.45
2018-11-28T07:01:26.178Z,1023.49
2018-11-28T07:02:06.735Z,1023.5
2018-11-28T07:02:47.294Z,1023.48
2018-11-28T07:03:27.850Z,1023.52
2018-11-28T07:04:08.400Z,1023.51
2018-11-28T07:04:48.956Z,1023.56
2018-11-28T07:05:29.518Z,1023.59
2018-11-28T07:06:10.076Z,1023.57
2018-11-28T07:06:50.634Z,1023.55
2018-11-28T07:07:31.187Z,1023.59
2018-11-28T07:08:11.744Z,1023.6
2018-11-28T07:08:52.304Z,1023.6
2018-11-28T07:09:32.865Z,1023.64
2018-11-28T07:10:13.424Z,1023.61
2018-11-28T07:10:53.976Z,1023.66
2018-11-28T07:11:34.530Z,1023.64
2018-11-28T07:12:15.118Z,1023.65
2018-11-28T07:12:55.678Z,1023.64
2018-11-28T07:13:36.227Z,1023.66
2018-11-28T07:14:16.784Z,1023.65
2018-11-28T07:14:57.350Z,1023.64
2018-11-28T07:15:37.904Z,1023.67
2018-11-28T07:16:18.460Z,1023.64
2018-11-28T07:16:59.042Z,1023.69
2018-11-28T07:17:39.599Z,1023.67
2018-11-28T07:18:20.160Z,1023.7
2018-11-28T07:19:00.715Z,1023.69
2018-11-28T07:19:41.308Z,1023.69
2018-11-28T07:20:21.832Z,1023.73
2018-11-28T07:21:02.391Z,1023.74
2018-11-28T07:21:42.961Z,1023.76
2018-11-28T07:22:23.711Z,1023.7
2018-11-28T07:23:04.266Z,1023.73
2018-11-28T07:23:44.822Z,1023.76
2018-11-28T07:24:25.383Z,1023.7
2018-11-28T07:25:05.989Z,1023.7
2018-11-28T07:25:46.541Z,1023.71
2018-11-28T07:26:27.485Z,1023.7
2018-11-28T07:27:07.850Z,1023.7
2018-11-28T07:27:48.410Z,1023.7
2018-11-28T07:28:28.958Z,1023.68
2018-11-28T07:29:09.524Z,1023.7
2018-11-28T07:29:50.088Z,1023.7
2018-11-28T07:30:30.647Z,1023.73
2018-11-28T07:31:11.252Z,1023.74
2018-11-28T07:31:51.811Z,1023.71
2018-11-28T07:32:32.396Z,1023.72
2018-11-28T07:33:12.948Z,1023.76
2018-11-28T07:33:53.506Z,1023.74
2018-11-28T07:34:34.054Z,1023.76
2018-11-28T07:35:14.629Z,1023.74
2018-11-28T07:35:55.183Z,1023.76
2018-11-28T07:36:35.750Z,1023.78
2018-11-28T07:37:16.305Z,1023.81
2018-11-28T07:37:56.861Z,1023.8
2018-11-28T07:38:37.422Z,1023.81
2018-11-28T07:39:17.983Z,1023.81
2018-11-28T07:39:58.545Z,1023.78
2018-11-28T07:40:39.106Z,1023.81
2018-11-28T07:41:19.660Z,1023.83
2018-11-28T07:42:00.226Z,1023.83
2018-11-28T07:42:40.784Z,1023.85
2018-11-28T07:43:21.349Z,1023.84
2018-11-28T07:44:01.918Z,1023.87
2018-11-28T07:44:42.545Z,1023.95
2018-11-28T07:45:23.110Z,1023.91
2018-11-28T07:46:03.676Z,1023.93
2018-11-28T07:46:44.234Z,1023.9
2018-11-28T07:47:24.797Z,1023.88
2018-11-28T07:48:05.347Z,1023.94
2018-11-28T07:48:45.910Z,1023.96
2018-11-28T07:49:26.472Z,1023.92
2018-11-28T07:50:07.291Z,1023.94
2018-11-28T07:50:47.993Z,1023.97
2018-11-28T07:51:28.554Z,1023.97
2018-11-28T07:52:09.119Z,1023.95
2018-11-28T07:52:49.676Z,1023.97
2018-11-28T07:53:30.229Z,1023.99
2018-11-28T07:54:10.987Z,1024.02
2018-11-28T07:54:51.753Z,1023.99
2018-11-28T07:55:32.336Z,1024.02
2018-11-28T07:56:12.888Z,1024.02
2018-11-28T07:56:53.750Z,1024
2018-11-28T07:57:34.008Z,1023.98
2018-11-28T07:58:14.564Z,1023.97
2018-11-28T07:58:55.131Z,1023.97
2018-11-28T07:59:35.773Z,1023.98
2018-11-28T08:00:16.649Z,1024.01
2018-11-28T08:00:57.288Z,1024.03
2018-11-28T08:01:38.012Z,1024.03
2018-11-28T08:02:18.699Z,1024.03
2018-11-28T08:02:59.271Z,1024.04
2018-11-28T08:03:39.827Z,1024.02
2018-11-28T08:04:20.661Z,1024.04
2018-11-28T08:05:01.182Z,1024.06
2018-11-28T08:05:41.622Z,1024.05
2018-11-28T08:06:22.226Z,1024.03
2018-11-28T08:07:02.784Z,1024.05
2018-11-28T08:07:43.350Z,1024
2018-11-28T08:08:23.909Z,1024.05
2018-11-28T08:09:04.475Z,1024.07
2018-11-28T08:09:45.042Z,1024.04
2018-11-28T08:10:25.595Z,1024.05
2018-11-28T08:11:06.153Z,1024.04
2018-11-28T08:11:46.749Z,1024.09
2018-11-28T08:12:27.464Z,1024.06
2018-11-28T08:13:08.021Z,1024.07
2018-11-28T08:13:48.585Z,1024.06
2018-11-28T08:14:29.145Z,1024.1
2018-11-28T08:15:09.703Z,1024.09
2018-11-28T08:15:50.304Z,1024.1
2018-11-28T08:16:30.860Z,1024.14
2018-11-28T08:17:11.422Z,1024.14
2018-11-28T08:17:51.980Z,1024.11
2018-11-28T08:18:32.541Z,1024.09